createdAt,value
2019-04-05T00:00:28.940Z,11.25
2019-04-05T00:03:00.150Z,11.18
2019-04-05T00:05:31.169Z,10.60
2019-04-05T00:08:02.051Z,12.15
2019-04-05T00:10:32.952Z,11.65
2019-04-05T00:13:03.854Z,12.20
2019-04-05T00:15:37.855Z,13.78
2019-04-05T00:18:07.641Z,11.65
2019-04-05T00:20:38.482Z,11.45
2019-04-05T00:23:09.319Z,11.40
2019-04-05T00:25:40.347Z,11.28
2019-04-05T00:28:11.213Z,9.88
2019-04-05T00:30:42.050Z,9.90
2019-04-05T00:35:49.238Z,9.78
2019-04-05T00:38:20.277Z,9.30
2019-04-05T00:40:51.079Z,8.75
2019-04-05T00:43:21.631Z,8.18
2019-04-05T00:45:53.679Z,8.38
2019-04-05T00:48:24.225Z,8.35
2019-04-05T00:50:54.765Z,8.13
2019-04-05T00:53:25.570Z,7.35
2019-04-05T00:55:56.212Z,7.90
2019-04-05T00:58:26.780Z,7.35
2019-04-05T01:00:57.406Z,8.10
2019-04-05T01:03:27.957Z,7.60
2019-04-05T01:05:58.508Z,7.87
2019-04-05T01:08:29.218Z,7.75
2019-04-05T01:10:59.871Z,7.53
2019-04-05T01:13:31.308Z,7.28
2019-04-05T01:16:02.020Z,7.47
2019-04-05T01:18:32.567Z,7.70
2019-04-05T01:21:05.719Z,7.03
2019-04-05T01:23:37.268Z,7.03
2019-04-05T01:26:08.410Z,7.75
2019-04-05T01:28:39.254Z,7.58
2019-04-05T01:31:09.879Z,7.17
2019-04-05T01:33:40.538Z,7.33
2019-04-05T01:36:11.238Z,7.45
2019-04-05T01:38:41.789Z,7.05
2019-04-05T01:41:12.845Z,6.90
2019-04-05T01:43:43.672Z,6.78
2019-04-05T01:46:15.026Z,7.15
2019-04-05T01:48:45.551Z,7.33
2019-04-05T01:51:16.451Z,6.30
2019-04-05T01:53:47.293Z,6.85
2019-04-05T01:56:18.332Z,7.62
2019-04-05T01:58:49.310Z,7.72
2019-04-05T02:01:20.115Z,7.55
2019-04-05T02:03:50.618Z,7.58
2019-04-05T02:06:21.640Z,7.65
2019-04-05T02:08:52.327Z,6.90
2019-04-05T02:11:42.366Z,6.60
2019-04-05T02:14:13.135Z,6.50
2019-04-05T02:16:43.734Z,7.08
2019-04-05T02:19:14.374Z,7.20
2019-04-05T02:21:45.118Z,8.03
2019-04-05T02:24:15.737Z,7.28
2019-04-05T02:26:46.674Z,6.67
2019-04-05T02:29:17.114Z,6.40
2019-04-05T02:31:47.646Z,6.08
2019-04-05T02:34:19.877Z,6.55
2019-04-05T02:36:50.306Z,7.50
2019-04-05T02:39:20.831Z,7.05
2019-04-05T02:41:53.042Z,6.80
2019-04-05T02:44:24.358Z,6.50
2019-04-05T02:46:56.250Z,6.50
2019-04-05T02:49:29.913Z,6.95
2019-04-05T02:52:02.395Z,6.83
2019-04-05T02:54:34.019Z,6.87
2019-04-05T02:57:04.948Z,6.95
2019-04-05T02:59:37.011Z,6.92
2019-04-05T03:02:08.379Z,6.67
2019-04-05T03:04:40.341Z,6.58
2019-04-05T03:07:10.979Z,7.12
2019-04-05T03:09:41.751Z,7.28
2019-04-05T03:12:12.497Z,6.65
2019-04-05T03:14:43.538Z,7.03
2019-04-05T03:17:14.251Z,6.67
2019-04-05T03:19:46.247Z,6.90
2019-04-05T03:22:17.834Z,7.80
2019-04-05T03:24:48.560Z,7.15
2019-04-05T03:27:21.683Z,7.75
2019-04-05T03:29:53.300Z,7.42
2019-04-05T03:32:23.862Z,7.97
2019-04-05T03:34:57.051Z,8.13
2019-04-05T03:37:27.963Z,7.40
2019-04-05T03:39:58.514Z,7.92
2019-04-05T03:42:29.186Z,7.85
2019-04-05T03:45:00.418Z,7.40
2019-04-05T03:47:31.241Z,7.65
2019-04-05T03:50:01.961Z,7.78
2019-04-05T03:52:38.479Z,7.60
2019-04-05T03:55:09.464Z,7.85
2019-04-05T03:57:39.891Z,7.35
2019-04-05T04:00:10.509Z,6.72
2019-04-05T04:02:41.394Z,6.97
2019-04-05T04:05:11.905Z,7.55
2019-04-05T04:07:44.538Z,7.10
2019-04-05T04:10:17.749Z,7.62
2019-04-05T04:12:48.285Z,7.80
2019-04-05T04:15:19.021Z,7.97
2019-04-05T04:17:50.028Z,8.13
2019-04-05T04:20:36.277Z,7.10
2019-04-05T04:23:09.303Z,7.53
2019-04-05T04:25:41.526Z,8.00
2019-04-05T04:28:12.897Z,7.87
2019-04-05T04:30:46.279Z,8.50
2019-04-05T04:33:17.215Z,7.67
2019-04-05T04:35:48.246Z,7.75
2019-04-05T04:38:19.426Z,8.20
2019-04-05T04:40:50.254Z,8.40
2019-04-05T04:43:21.909Z,7.58
2019-04-05T04:45:52.702Z,7.45
2019-04-05T04:48:23.222Z,7.22
2019-04-05T04:50:54.116Z,8.00
2019-04-05T04:53:25.149Z,8.10
2019-04-05T04:55:55.769Z,8.45
2019-04-05T04:58:26.588Z,8.55
2019-04-05T05:00:57.606Z,8.28
2019-04-05T05:03:28.292Z,8.20
2019-04-05T05:05:58.986Z,8.15
2019-04-05T05:08:29.694Z,8.10
2019-04-05T05:11:00.212Z,6.87
2019-04-05T05:13:31.208Z,7.25
2019-04-05T05:16:01.945Z,6.92
2019-04-05T05:18:32.654Z,7.03
2019-04-05T05:21:03.241Z,7.45
2019-04-05T05:23:34.633Z,6.62
2019-04-05T05:26:05.263Z,6.62
2019-04-05T05:28:35.953Z,7.28
2019-04-05T05:31:06.470Z,7.42
2019-04-05T05:33:37.121Z,6.70
2019-04-05T05:36:10.374Z,7.78
2019-04-05T05:38:39.953Z,7.58
2019-04-05T05:41:10.483Z,7.42
2019-04-05T05:43:41.075Z,7.08
2019-04-05T05:46:11.487Z,6.95
2019-04-05T05:48:42.507Z,6.85
2019-04-05T05:51:13.241Z,6.95
2019-04-05T05:53:43.744Z,6.20
2019-04-05T05:56:14.449Z,6.92
2019-04-05T05:58:45.039Z,7.42
2019-04-05T06:01:15.465Z,6.50
2019-04-05T06:03:45.969Z,6.58
2019-04-05T06:06:16.565Z,6.75
2019-04-05T06:08:47.018Z,6.45
2019-04-05T06:11:17.448Z,6.40
2019-04-05T06:13:48.057Z,6.33
2019-04-05T06:19:14.989Z,6.08
2019-04-05T06:21:51.370Z,6.10
2019-04-05T06:24:26.601Z,6.17
2019-04-05T06:26:57.236Z,5.62
2019-04-05T06:29:32.819Z,6.08
2019-04-05T06:32:03.525Z,5.92
2019-04-05T06:34:34.013Z,6.25
2019-04-05T06:37:04.762Z,5.25
2019-04-05T06:39:35.411Z,6.05
2019-04-05T06:42:05.937Z,5.62
2019-04-05T06:45:37.724Z,5.67
2019-04-05T06:48:18.313Z,5.47
2019-04-05T06:50:40.268Z,6.08
2019-04-05T06:53:10.697Z,5.45
2019-04-05T06:55:41.137Z,5.60
2019-04-05T06:58:19.688Z,5.70
2019-04-05T07:00:56.509Z,5.53
2019-04-05T07:03:17.160Z,5.22
2019-04-05T07:05:47.588Z,5.67
2019-04-05T07:08:18.490Z,5.30
2019-04-05T07:10:49.244Z,5.50
2019-04-05T07:13:19.776Z,4.90
2019-04-05T07:15:50.314Z,5.10
2019-04-05T07:21:50.888Z,5.62
2019-04-05T07:24:22.487Z,5.85
2019-04-05T07:26:54.592Z,4.72
2019-04-05T07:29:25.983Z,5.10
2019-04-05T07:31:57.244Z,5.58
2019-04-05T07:34:28.161Z,6.22
2019-04-05T07:36:58.932Z,6.83
2019-04-05T07:39:29.372Z,6.33
2019-04-05T07:42:00.034Z,6.25
2019-04-05T07:44:30.991Z,7.00
2019-04-05T07:47:02.216Z,6.97
2019-04-05T07:50:09.660Z,6.87
2019-04-05T08:00:44.590Z,7.53
2019-04-05T08:03:15.585Z,6.90
2019-04-05T08:08:52.066Z,7.15
2019-04-05T08:11:24.171Z,7.85
2019-04-05T08:13:56.558Z,6.95
2019-04-05T08:16:27.107Z,6.47
2019-04-05T08:18:58.386Z,7.20
2019-04-05T08:21:29.238Z,7.05
2019-04-05T08:23:59.617Z,7.40
2019-04-05T08:26:30.026Z,6.85
2019-04-05T08:29:02.092Z,6.58
2019-04-05T08:31:32.796Z,7.20
2019-04-05T08:34:03.179Z,5.62
2019-04-05T08:36:33.718Z,6.30
2019-04-05T08:39:05.747Z,6.87
2019-04-05T08:41:36.132Z,6.00
2019-04-05T08:44:07.076Z,8.78
2019-04-05T08:46:37.477Z,6.08
2019-04-05T08:51:40.109Z,6.35
2019-04-05T08:54:11.041Z,6.08
2019-04-05T08:56:42.067Z,7.35
2019-04-05T08:59:12.517Z,6.40
2019-04-05T09:01:42.968Z,6.00
2019-04-05T09:04:13.578Z,6.45
2019-04-05T09:06:44.311Z,6.72
2019-04-05T09:09:14.859Z,5.90
2019-04-05T09:11:46.122Z,5.83
2019-04-05T09:14:20.819Z,6.20
2019-04-05T09:16:51.971Z,6.47
2019-04-05T09:19:23.880Z,6.60
2019-04-05T09:21:56.454Z,6.40
2019-04-05T09:24:26.834Z,6.03
2019-04-05T09:27:16.602Z,6.28
2019-04-05T09:29:47.466Z,6.03
2019-04-05T09:32:18.167Z,5.42
2019-04-05T09:34:49.067Z,5.40
2019-04-05T09:37:19.699Z,5.50
2019-04-05T09:39:50.411Z,5.45
2019-04-05T09:42:21.453Z,5.50
2019-04-05T09:44:52.090Z,5.33
2019-04-05T09:47:22.495Z,5.60
2019-04-05T09:50:04.761Z,5.08
2019-04-05T09:52:35.446Z,5.95
2019-04-05T09:55:06.835Z,5.33
2019-04-05T09:57:37.431Z,4.67
2019-04-05T10:00:12.204Z,5.35
2019-04-05T10:02:44.110Z,4.90
2019-04-05T10:05:14.895Z,4.65
2019-04-05T10:07:54.675Z,4.92
2019-04-05T10:10:17.394Z,5.00
2019-04-05T10:12:49.245Z,5.22
2019-04-05T10:15:21.653Z,4.90
2019-04-05T10:17:55.232Z,4.87
2019-04-05T10:20:29.206Z,4.95
2019-04-05T10:23:01.096Z,4.83
2019-04-05T10:25:31.492Z,5.67
2019-04-05T10:28:03.265Z,5.60
2019-04-05T10:30:34.184Z,5.45
2019-04-05T10:33:04.949Z,4.70
2019-04-05T10:35:35.323Z,5.33
2019-04-05T10:38:06.644Z,5.60
2019-04-05T10:40:37.125Z,5.40
2019-04-05T10:43:12.126Z,5.60
2019-04-05T10:45:42.771Z,6.92
2019-04-05T10:48:13.159Z,6.10
2019-04-05T10:50:43.715Z,6.90
2019-04-05T10:53:14.127Z,7.03
2019-04-05T10:55:44.670Z,6.95
2019-04-05T10:58:15.246Z,7.22
2019-04-05T11:00:45.778Z,7.85
2019-04-05T11:03:16.203Z,7.03
2019-04-05T11:05:49.312Z,7.92
2019-04-05T11:08:19.086Z,7.05
2019-04-05T11:10:49.462Z,7.47
2019-04-05T11:13:38.780Z,8.10
2019-04-05T11:16:09.657Z,8.58
2019-04-05T11:18:40.416Z,7.45
2019-04-05T11:21:11.489Z,7.90
2019-04-05T11:24:08.704Z,7.58
2019-04-05T11:26:39.543Z,7.97
2019-04-05T11:29:14.368Z,8.08
2019-04-05T11:31:56.287Z,8.33
2019-04-05T11:34:17.407Z,7.80
2019-04-05T11:36:48.049Z,8.23
2019-04-05T11:39:18.894Z,8.30
2019-04-05T11:41:51.454Z,8.68
2019-04-05T11:44:26.626Z,8.80
2019-04-05T11:46:57.694Z,8.65
2019-04-05T11:49:29.867Z,8.28
2019-04-05T11:52:00.389Z,8.00
2019-04-05T11:54:50.024Z,8.20
2019-04-05T11:57:21.106Z,8.28
2019-04-05T11:59:51.586Z,8.93
2019-04-05T12:02:29.610Z,9.00
2019-04-05T12:05:02.189Z,8.83
2019-04-05T12:07:32.961Z,9.58
2019-04-05T12:10:03.773Z,9.20
2019-04-05T12:12:34.362Z,9.78
2019-04-05T12:15:06.478Z,9.75
2019-04-05T12:17:37.678Z,9.88
2019-04-05T12:20:08.992Z,10.13
2019-04-05T12:39:43.730Z,9.97
2019-04-05T12:42:14.556Z,10.00
2019-04-05T12:44:45.449Z,8.95
2019-04-05T12:47:16.301Z,9.13
2019-04-05T12:49:47.162Z,8.83
2019-04-05T12:52:22.923Z,9.53
2019-04-05T12:54:54.116Z,9.78
2019-04-05T12:57:22.262Z,9.58
2019-04-05T12:59:55.693Z,8.85
2019-04-05T13:02:33.318Z,8.58
2019-04-05T13:04:57.243Z,8.60
2019-04-05T13:07:30.027Z,8.73
2019-04-05T13:10:00.418Z,9.30
2019-04-05T13:12:30.904Z,8.60
2019-04-05T13:15:12.170Z,8.00
2019-04-05T13:17:33.547Z,8.93
2019-04-05T13:20:04.597Z,8.33
2019-04-05T13:22:35.135Z,9.08
2019-04-05T13:25:10.751Z,8.55
2019-04-05T13:27:41.239Z,8.58
2019-04-05T13:30:11.369Z,8.75
2019-04-05T13:32:41.761Z,8.85
2019-04-05T13:35:12.835Z,8.98
2019-04-05T13:37:43.534Z,8.70
2019-04-05T13:40:14.022Z,8.73
2019-04-05T13:42:44.582Z,8.68
2019-04-05T13:45:15.886Z,8.33
2019-04-05T13:47:46.285Z,8.90
2019-04-05T13:50:19.448Z,9.15
2019-04-05T13:52:49.387Z,8.63
2019-04-05T13:55:19.975Z,9.35
2019-04-05T13:57:50.529Z,9.18
2019-04-05T14:00:21.471Z,9.10
2019-04-05T14:02:51.920Z,9.13
2019-04-05T14:05:22.810Z,8.78
2019-04-05T14:08:09.128Z,9.25
2019-04-05T14:10:27.223Z,8.60
2019-04-05T14:12:57.607Z,9.10
2019-04-05T14:15:28.003Z,8.90
2019-04-05T14:17:58.580Z,8.40
2019-04-05T14:20:29.050Z,9.33
2019-04-05T14:22:59.442Z,9.00
2019-04-05T14:25:30.225Z,9.05
2019-04-05T14:28:02.477Z,8.15
2019-04-05T14:30:34.959Z,9.43
2019-04-05T14:33:05.267Z,9.05
2019-04-05T14:35:35.655Z,8.93
2019-04-05T14:38:06.392Z,8.90
2019-04-05T14:40:36.938Z,9.35
2019-04-05T14:43:07.349Z,9.28
2019-04-05T14:45:37.721Z,8.48
2019-04-05T14:48:08.281Z,8.40
2019-04-05T14:50:38.656Z,8.90
2019-04-05T14:53:09.049Z,8.78
2019-04-05T14:55:39.609Z,8.90
2019-04-05T14:58:10.582Z,9.38
2019-04-05T15:00:41.285Z,8.98
2019-04-05T15:03:11.840Z,9.40
2019-04-05T15:05:42.240Z,9.20
2019-04-05T15:08:14.083Z,9.53
2019-04-05T15:10:44.822Z,9.60
2019-04-05T15:13:15.206Z,9.58
2019-04-05T15:15:45.615Z,9.15
2019-04-05T15:18:16.155Z,9.35
2019-04-05T15:20:48.115Z,8.95
2019-04-05T15:23:18.545Z,10.10
2019-04-05T15:25:49.846Z,10.15
2019-04-05T15:28:22.454Z,9.00
2019-04-05T15:30:55.908Z,8.85
2019-04-05T15:33:25.562Z,9.13
2019-04-05T15:36:00.128Z,9.63
2019-04-05T15:38:31.336Z,9.40
2019-04-05T15:41:00.960Z,10.08
2019-04-05T15:43:31.451Z,9.75
2019-04-05T15:46:02.073Z,8.68
2019-04-05T15:48:32.453Z,9.60
2019-04-05T15:51:02.851Z,9.50
2019-04-05T15:53:33.406Z,9.03
2019-04-05T15:56:04.365Z,8.83
2019-04-05T15:58:35.458Z,8.98
2019-04-05T16:01:06.042Z,10.00
2019-04-05T16:03:37.033Z,10.03
2019-04-05T16:06:07.946Z,10.43
2019-04-05T16:08:40.285Z,11.10
2019-04-05T16:11:10.662Z,10.90
2019-04-05T16:13:41.337Z,10.68
2019-04-05T16:16:11.719Z,10.53
2019-04-05T16:18:42.297Z,10.18
2019-04-05T16:21:12.859Z,10.08
2019-04-05T16:23:43.476Z,10.28
2019-04-05T16:26:13.906Z,10.53
2019-04-05T16:28:44.594Z,10.05
2019-04-05T16:31:16.334Z,11.05
2019-04-05T16:33:46.872Z,10.53
2019-04-05T16:36:17.525Z,10.32
2019-04-05T16:38:47.965Z,10.45
2019-04-05T16:41:18.366Z,10.78
2019-04-05T16:43:49.315Z,11.15
2019-04-05T16:46:22.651Z,12.13
2019-04-05T16:48:53.238Z,11.70
2019-04-05T16:51:24.369Z,10.82
2019-04-05T16:54:03.223Z,10.80
2019-04-05T16:56:33.692Z,9.90
2019-04-05T16:59:04.099Z,10.13
2019-04-05T17:01:34.682Z,10.45
2019-04-05T17:04:05.306Z,9.48
2019-04-05T17:06:35.967Z,10.03
2019-04-05T17:09:14.942Z,9.68
2019-04-05T17:11:46.169Z,10.13
2019-04-05T17:14:16.939Z,9.98
2019-04-05T17:16:47.357Z,9.50
2019-04-05T17:19:17.766Z,9.78
2019-04-05T17:21:48.355Z,10.15
2019-04-05T17:24:18.838Z,9.88
2019-04-05T17:26:49.299Z,9.48
2019-04-05T17:29:19.867Z,10.32
2019-04-05T17:31:50.268Z,10.18
2019-04-05T17:34:20.711Z,9.65
2019-04-05T17:36:51.304Z,10.45
2019-04-05T17:39:21.707Z,9.75
2019-04-05T17:41:52.118Z,10.43
2019-04-05T17:44:22.690Z,10.08
2019-04-05T17:46:53.458Z,9.78
2019-04-05T17:49:23.857Z,10.25
2019-04-05T17:51:54.427Z,9.60
2019-04-05T17:54:24.867Z,10.60
2019-04-05T17:56:55.270Z,10.38
2019-04-05T17:59:25.858Z,10.13
2019-04-05T18:01:56.387Z,10.65
2019-04-05T18:04:26.862Z,9.35
2019-04-05T18:06:57.454Z,9.50
2019-04-05T18:09:28.428Z,9.43
2019-04-05T18:11:58.839Z,9.90
2019-04-05T18:14:29.669Z,10.15
2019-04-05T18:17:00.066Z,10.15
2019-04-05T18:19:30.479Z,10.32
2019-04-05T18:22:01.177Z,9.90
2019-04-05T18:24:31.910Z,10.82
2019-04-05T18:27:02.562Z,10.13
2019-04-05T18:29:34.967Z,10.45
2019-04-05T18:32:05.807Z,10.55
2019-04-05T18:34:36.226Z,10.30
2019-04-05T18:37:07.026Z,9.78
2019-04-05T18:39:37.581Z,10.20
2019-04-05T18:42:08.647Z,11.57
2019-04-05T18:44:41.066Z,11.08
2019-04-05T18:47:15.187Z,11.60
2019-04-05T18:49:46.615Z,11.28
2019-04-05T18:52:17.510Z,11.63
2019-04-05T18:54:48.937Z,11.68
2019-04-05T18:57:22.043Z,11.15
2019-04-05T18:59:53.615Z,11.00
2019-04-05T19:02:25.817Z,10.58
2019-04-05T19:04:56.798Z,9.90
2019-04-05T19:07:27.559Z,10.65
2019-04-05T19:10:01.563Z,11.35
2019-04-05T19:12:53.178Z,10.15
2019-04-05T19:15:24.549Z,10.48
2019-04-05T19:17:56.089Z,10.90
2019-04-05T19:20:26.779Z,11.35
2019-04-05T19:22:58.165Z,12.70
2019-04-05T19:25:50.648Z,21.95
2019-04-05T19:28:21.606Z,22.77
2019-04-05T19:48:46.074Z,29.82
2019-04-05T19:51:17.254Z,35.92
2019-04-05T19:53:47.958Z,38.35
2019-04-05T19:56:18.846Z,39.08
2019-04-05T19:58:49.281Z,40.92
2019-04-05T20:01:19.942Z,41.80
2019-04-05T20:03:50.815Z,34.13
2019-04-05T20:06:21.523Z,31.05
2019-04-05T20:08:52.178Z,29.80
2019-04-05T20:14:12.891Z,29.55
2019-04-05T20:16:43.471Z,30.08
2019-04-05T20:19:14.057Z,27.48
2019-04-05T20:22:04.226Z,28.12
2019-04-05T20:24:35.038Z,26.07
2019-04-05T20:27:05.807Z,25.37
2019-04-05T20:29:36.704Z,25.77
2019-04-05T20:32:07.507Z,26.17
2019-04-05T20:34:38.523Z,25.70
2019-04-05T20:37:09.758Z,27.58
2019-04-05T20:39:40.761Z,26.50
2019-04-05T20:42:11.523Z,27.52
2019-04-05T20:44:42.448Z,27.35
2019-04-05T20:47:13.225Z,26.75
2019-04-05T20:49:44.061Z,26.12
2019-04-05T20:52:15.268Z,24.43
2019-04-05T20:54:46.046Z,23.55
2019-04-05T20:57:37.118Z,22.48
2019-04-05T21:00:11.504Z,22.52
2019-04-05T21:02:42.374Z,20.90
2019-04-05T21:05:13.066Z,19.27
2019-04-05T21:07:43.800Z,21.70
2019-04-05T21:10:14.658Z,19.42
2019-04-05T21:12:47.254Z,20.17
2019-04-05T21:15:17.959Z,21.30
2019-04-05T21:17:49.039Z,20.80
2019-04-05T21:20:19.977Z,20.48
2019-04-05T21:22:50.655Z,21.97
2019-04-05T21:25:21.606Z,21.75
2019-04-05T21:27:54.343Z,23.25
2019-04-05T21:30:25.363Z,22.22
2019-04-05T21:32:56.240Z,22.42
2019-04-05T21:35:26.792Z,25.50
2019-04-05T21:37:57.504Z,24.70
2019-04-05T21:40:28.074Z,24.92
2019-04-05T21:42:59.053Z,24.92
2019-04-05T21:45:30.048Z,25.95
2019-04-05T21:48:01.675Z,25.05
2019-04-05T21:50:32.496Z,25.72
2019-04-05T21:53:03.863Z,25.90
2019-04-05T21:55:34.762Z,24.45
2019-04-05T21:58:05.622Z,24.98
2019-04-05T22:00:44.283Z,24.55
2019-04-05T22:03:15.139Z,24.72
2019-04-05T22:05:45.994Z,24.47
2019-04-05T22:08:16.712Z,23.40
2019-04-05T22:10:47.299Z,22.07
2019-04-05T22:13:27.978Z,23.00
2019-04-05T22:15:59.106Z,24.30
2019-04-05T22:18:29.946Z,22.50
2019-04-05T22:21:00.870Z,23.42
2019-04-05T22:23:32.118Z,23.47
2019-04-05T22:26:02.922Z,23.12
2019-04-05T22:28:38.235Z,22.60
2019-04-05T22:31:08.999Z,24.00
2019-04-05T22:33:39.681Z,26.48
2019-04-05T22:36:10.268Z,26.12
2019-04-05T22:38:41.449Z,25.43
2019-04-05T22:41:12.229Z,27.00
2019-04-05T22:43:42.825Z,25.45
2019-04-05T22:46:13.845Z,27.50
2019-04-05T22:48:55.827Z,26.82
2019-04-05T22:51:26.592Z,26.60
2019-04-05T22:53:57.581Z,26.52
2019-04-05T22:56:28.293Z,29.63
2019-04-05T22:58:59.327Z,28.32
2019-04-05T23:01:30.156Z,30.05
2019-04-05T23:04:01.012Z,30.97
2019-04-05T23:06:31.787Z,31.37
2019-04-05T23:09:02.686Z,28.67
2019-04-05T23:11:33.749Z,29.23
2019-04-05T23:14:06.636Z,31.05
2019-04-05T23:16:37.569Z,28.07
2019-04-05T23:19:08.156Z,28.57
2019-04-05T23:21:39.271Z,27.90
2019-04-05T23:24:10.316Z,29.02
2019-04-05T23:26:41.330Z,27.00
2019-04-05T23:29:12.372Z,27.25
2019-04-05T23:31:43.200Z,28.23
2019-04-05T23:34:16.146Z,26.57
2019-04-05T23:36:47.171Z,29.00
2019-04-05T23:39:18.039Z,29.48
2019-04-05T23:41:48.902Z,29.63
2019-04-05T23:44:19.947Z,30.12
2019-04-05T23:46:52.621Z,30.15
2019-04-05T23:49:22.745Z,33.40
2019-04-05T23:51:53.824Z,30.43
2019-04-05T23:54:24.710Z,29.67
2019-04-05T23:56:56.055Z,27.80
2019-04-05T23:59:27.185Z,28.35
